KOBE/OBE METAR and TAF weather

Enter ICAO airport designator
Station Type Date Time Source
KOBE METAR 2020/07/14 05:55 UTC NOAA

KOBE 140555Z AUTO 00000KT 10SM CLR 25/23 A2999 RMK AO2


Station Type Date Time Source
KOBE Decoded METAR 2020/07/14 05:55 UTC NOAA

Okeechobee County Airport, FL, United States (KOBE) 27-15-60N 080-51-02W
Jul 14, 2020 - 01:55 AM EDT / 2020.07.14 0555 UTC
Wind: Calm:0
Visibility: 10 mile(s):0
Sky conditions: clear
Temperature: 77 F (25 C)
Dew Point: 73 F (23 C)
Relative Humidity: 88%
Pressure (altimeter): 29.99 in. Hg (1015 hPa)
ob: KOBE 140555Z AUTO 00000KT 10SM CLR 25/23 A2999 RMK AO2
cycle: 6

Station Type Date Time Source
KOBE TAF UTC NOAA

Error!

Example: see airport list